createdAt,value
2019-02-02T00:01:53.772Z,9.30
2019-02-02T00:04:22.698Z,9.93
2019-02-02T00:07:27.133Z,10.23
2019-02-02T00:09:59.940Z,10.43
2019-02-02T00:15:30.217Z,10.27
2019-02-02T00:18:04.999Z,11.27
2019-02-02T00:21:15.234Z,11.20
2019-02-02T00:23:41.895Z,11.07
2019-02-02T00:26:17.843Z,10.50
2019-02-02T00:32:43.457Z,12.73
2019-02-02T00:35:24.935Z,10.27
2019-02-02T00:40:45.362Z,9.73
2019-02-02T00:43:13.784Z,9.13
2019-02-02T00:46:21.316Z,9.50
2019-02-02T00:48:49.778Z,9.68
2019-02-02T00:51:18.306Z,10.50
2019-02-02T00:53:46.712Z,9.97
2019-02-02T00:59:55.676Z,9.20
2019-02-02T01:02:24.017Z,9.33
2019-02-02T01:04:52.457Z,14.67
2019-02-02T01:07:20.871Z,10.53
2019-02-02T01:09:49.339Z,13.67
2019-02-02T01:12:17.863Z,13.73
2019-02-02T01:14:54.227Z,10.10
2019-02-02T01:17:22.650Z,10.63
2019-02-02T01:20:22.599Z,11.93
2019-02-02T01:22:51.597Z,10.63
2019-02-02T01:25:20.073Z,9.67
2019-02-02T01:28:24.289Z,9.53
2019-02-02T01:30:52.686Z,10.00
2019-02-02T01:34:03.963Z,10.27
2019-02-02T01:36:32.355Z,9.80
2019-02-02T01:39:03.719Z,8.67
2019-02-02T01:41:37.967Z,8.85
2019-02-02T01:44:06.254Z,8.97
2019-02-02T01:46:34.763Z,9.10
2019-02-02T01:49:09.297Z,8.47
2019-02-02T01:51:38.457Z,7.57
2019-02-02T01:54:46.141Z,7.60
2019-02-02T01:57:14.603Z,7.67
2019-02-02T01:59:43.036Z,8.63
2019-02-02T02:02:51.532Z,8.03
2019-02-02T02:05:19.985Z,7.07
2019-02-02T02:07:50.536Z,8.00
2019-02-02T02:10:27.416Z,7.83
2019-02-02T02:12:55.852Z,8.23
2019-02-02T02:16:06.820Z,8.90
2019-02-02T02:18:35.223Z,8.40
2019-02-02T02:21:03.697Z,8.80
2019-02-02T02:26:45.388Z,7.70
2019-02-02T02:29:14.104Z,9.17
2019-02-02T02:31:49.830Z,10.50
2019-02-02T02:34:18.166Z,15.27
2019-02-02T02:37:21.228Z,14.47
2019-02-02T02:39:49.547Z,8.97
2019-02-02T02:42:18.283Z,8.40
2019-02-02T02:45:30.726Z,7.70
2019-02-02T02:48:00.677Z,8.27
2019-02-02T02:50:30.552Z,9.30
2019-02-02T02:53:06.259Z,8.50
2019-02-02T02:55:34.614Z,8.27
2019-02-02T02:58:27.169Z,8.27
2019-02-02T03:00:55.752Z,8.50
2019-02-02T03:03:24.074Z,7.73
2019-02-02T03:06:35.500Z,8.03
2019-02-02T03:09:07.000Z,7.87
2019-02-02T03:11:35.410Z,7.13
2019-02-02T03:14:11.132Z,7.60
2019-02-02T03:16:39.574Z,7.87
2019-02-02T03:19:08.308Z,7.60
2019-02-02T03:21:36.778Z,7.90
2019-02-02T03:24:05.586Z,8.10
2019-02-02T03:26:34.055Z,8.17
2019-02-02T03:29:02.470Z,7.60
2019-02-02T03:31:30.958Z,8.10
2019-02-02T03:33:59.406Z,6.90
2019-02-02T03:36:27.740Z,6.90
2019-02-02T03:38:56.078Z,7.65
2019-02-02T03:41:24.984Z,7.33
2019-02-02T03:43:53.596Z,7.45
2019-02-02T03:46:21.939Z,8.15
2019-02-02T03:48:50.542Z,7.85
2019-02-02T03:51:18.947Z,8.90
2019-02-02T03:53:47.300Z,7.92
2019-02-02T03:56:15.631Z,8.07
2019-02-02T03:58:44.004Z,8.65
2019-02-02T04:01:12.403Z,8.90
2019-02-02T04:03:41.057Z,8.83
2019-02-02T04:06:09.490Z,8.23
2019-02-02T04:08:37.892Z,8.48
2019-02-02T04:11:06.349Z,8.70
2019-02-02T04:13:35.280Z,8.83
2019-02-02T04:16:03.690Z,9.40
2019-02-02T04:18:32.131Z,9.78
2019-02-02T04:21:00.613Z,9.60
2019-02-02T04:23:29.280Z,9.63
2019-02-02T04:25:58.844Z,9.33
2019-02-02T04:28:27.170Z,9.45
2019-02-02T04:30:55.602Z,10.55
2019-02-02T04:33:26.985Z,9.28
2019-02-02T04:35:55.321Z,11.00
2019-02-02T04:38:23.675Z,9.88
2019-02-02T04:40:54.809Z,9.50
2019-02-02T04:43:23.194Z,9.73
2019-02-02T04:45:51.521Z,9.60
2019-02-02T04:48:20.001Z,9.25
2019-02-02T04:50:48.328Z,9.25
2019-02-02T04:53:16.743Z,9.40
2019-02-02T04:55:45.230Z,9.45
2019-02-02T04:58:13.644Z,9.28
2019-02-02T05:00:42.724Z,9.65
2019-02-02T05:03:11.100Z,9.10
2019-02-02T05:05:40.332Z,8.98
2019-02-02T05:08:08.651Z,9.48
2019-02-02T05:10:37.458Z,8.70
2019-02-02T05:13:05.877Z,9.38
2019-02-02T05:15:34.237Z,9.85
2019-02-02T05:18:03.218Z,10.75
2019-02-02T05:20:31.650Z,9.83
2019-02-02T05:23:00.020Z,9.95
2019-02-02T05:25:28.671Z,10.45
2019-02-02T05:27:57.011Z,10.85
2019-02-02T05:30:26.834Z,9.90
2019-02-02T05:32:55.356Z,10.32
2019-02-02T05:35:23.726Z,10.72
2019-02-02T05:37:52.371Z,11.00
2019-02-02T05:40:21.134Z,11.10
2019-02-02T05:42:50.234Z,10.30
2019-02-02T05:45:19.435Z,11.33
2019-02-02T05:47:47.931Z,9.85
2019-02-02T05:50:17.483Z,10.25
2019-02-02T05:52:45.807Z,9.83
2019-02-02T05:55:15.039Z,10.35
2019-02-02T05:57:43.435Z,9.38
2019-02-02T06:00:15.107Z,9.20
2019-02-02T06:02:43.951Z,9.55
2019-02-02T06:05:12.356Z,8.70
2019-02-02T06:07:40.799Z,8.98
2019-02-02T06:10:10.787Z,8.88
2019-02-02T06:12:39.104Z,9.35
2019-02-02T06:15:07.564Z,8.80
2019-02-02T06:17:36.323Z,8.85
2019-02-02T06:20:08.755Z,8.90
2019-02-02T06:22:39.596Z,9.03
2019-02-02T06:25:09.449Z,9.48
2019-02-02T06:27:37.851Z,9.18
2019-02-02T06:30:08.250Z,9.93
2019-02-02T06:32:37.068Z,10.58
2019-02-02T06:35:06.859Z,11.40
2019-02-02T06:37:36.495Z,12.35
2019-02-02T06:40:05.787Z,10.55
2019-02-02T06:42:34.230Z,10.75
2019-02-02T06:45:03.188Z,10.90
2019-02-02T06:47:31.531Z,11.12
2019-02-02T06:49:59.911Z,11.60
2019-02-02T06:52:31.644Z,10.15
2019-02-02T06:55:00.296Z,10.68
2019-02-02T06:57:28.716Z,9.00
2019-02-02T06:59:58.703Z,9.23
2019-02-02T07:02:29.011Z,9.78
2019-02-02T07:04:57.156Z,11.03
2019-02-02T07:07:26.618Z,10.68
2019-02-02T07:09:55.315Z,10.90
2019-02-02T07:12:23.857Z,10.95
2019-02-02T07:14:52.255Z,12.03
2019-02-02T07:17:20.908Z,11.68
2019-02-02T07:19:49.323Z,12.93
2019-02-02T07:22:17.821Z,12.33
2019-02-02T07:24:46.203Z,11.30
2019-02-02T07:27:14.565Z,13.68
2019-02-02T07:29:43.004Z,12.80
2019-02-02T07:32:11.549Z,12.28
2019-02-02T07:34:45.920Z,12.70
2019-02-02T07:37:24.871Z,10.30
2019-02-02T07:39:53.573Z,11.48
2019-02-02T07:42:28.179Z,11.12
2019-02-02T07:44:58.343Z,11.63
2019-02-02T07:47:29.770Z,13.00
2019-02-02T07:50:01.265Z,12.63
2019-02-02T07:52:41.991Z,12.35
2019-02-02T07:55:19.276Z,10.40
2019-02-02T07:57:47.666Z,12.23
2019-02-02T08:00:18.400Z,13.72
2019-02-02T08:02:46.860Z,10.50
2019-02-02T08:05:15.201Z,10.70
2019-02-02T08:07:43.617Z,11.60
2019-02-02T08:10:12.802Z,11.03
2019-02-02T08:12:46.195Z,11.80
2019-02-02T08:15:24.731Z,10.50
2019-02-02T08:17:53.115Z,11.93
2019-02-02T08:20:21.580Z,10.48
2019-02-02T08:22:56.350Z,10.20
2019-02-02T08:25:26.786Z,10.13
2019-02-02T08:27:58.178Z,9.73
2019-02-02T08:30:28.214Z,10.72
2019-02-02T08:32:57.485Z,11.80
2019-02-02T08:35:25.819Z,11.60
2019-02-02T08:37:56.585Z,10.90
2019-02-02T08:40:25.031Z,11.27
2019-02-02T08:42:53.442Z,9.93
2019-02-02T08:45:22.298Z,12.70
2019-02-02T08:47:51.348Z,11.93
2019-02-02T08:50:20.984Z,11.63
2019-02-02T08:52:52.016Z,11.17
2019-02-02T08:55:20.452Z,10.93
2019-02-02T08:57:48.936Z,11.77
2019-02-02T09:00:20.504Z,11.93
2019-02-02T09:02:48.896Z,15.33
2019-02-02T09:05:18.738Z,13.87
2019-02-02T09:07:47.135Z,13.95
2019-02-02T09:10:19.565Z,12.17
2019-02-02T09:12:49.667Z,11.93
2019-02-02T09:15:18.531Z,12.90
2019-02-02T09:17:47.180Z,12.45
2019-02-02T09:20:15.744Z,11.35
2019-02-02T09:23:02.609Z,11.85
2019-02-02T09:25:18.932Z,12.65
2019-02-02T09:27:47.570Z,12.20
2019-02-02T09:30:20.461Z,11.33
2019-02-02T09:32:52.007Z,11.17
2019-02-02T09:35:20.560Z,11.13
2019-02-02T09:37:50.137Z,11.70
2019-02-02T09:40:21.241Z,11.57
2019-02-02T09:42:53.004Z,10.73
2019-02-02T09:45:24.476Z,11.60
2019-02-02T09:47:54.646Z,11.00
2019-02-02T09:50:24.146Z,10.80
2019-02-02T09:52:52.473Z,11.53
2019-02-02T09:55:23.040Z,10.53
2019-02-02T09:57:55.001Z,10.90
2019-02-02T10:00:26.223Z,10.97
2019-02-02T10:02:54.593Z,10.23
2019-02-02T10:05:23.270Z,12.33
2019-02-02T10:07:51.860Z,11.87
2019-02-02T10:10:21.504Z,11.93
2019-02-02T10:12:52.963Z,12.70
2019-02-02T10:15:22.122Z,12.40
2019-02-02T10:17:50.464Z,9.93
2019-02-02T10:20:19.699Z,11.53
2019-02-02T10:22:50.357Z,11.20
2019-02-02T10:25:20.538Z,11.73
2019-02-02T10:27:49.287Z,12.60
2019-02-02T10:30:22.880Z,14.53
2019-02-02T10:32:51.384Z,13.57
2019-02-02T10:35:19.866Z,12.30
2019-02-02T10:37:48.491Z,11.83
2019-02-02T10:40:16.833Z,12.50
2019-02-02T10:42:45.836Z,11.67
2019-02-02T10:45:16.142Z,12.87
2019-02-02T10:47:46.897Z,12.07
2019-02-02T10:50:23.186Z,12.60
2019-02-02T10:52:52.439Z,12.53
2019-02-02T10:55:20.873Z,12.60
2019-02-02T10:57:49.317Z,12.23
2019-02-02T11:00:25.058Z,12.97
2019-02-02T11:02:56.408Z,11.70
2019-02-02T11:05:24.917Z,15.37
2019-02-02T11:07:56.777Z,12.10
2019-02-02T11:10:31.578Z,11.97
2019-02-02T11:13:00.353Z,10.67
2019-02-02T11:15:28.778Z,10.60
2019-02-02T11:17:57.307Z,9.53
2019-02-02T11:20:31.695Z,9.60
2019-02-02T11:23:00.348Z,11.33
2019-02-02T11:25:31.537Z,13.17
2019-02-02T11:28:00.698Z,13.07
2019-02-02T11:30:29.922Z,11.43
2019-02-02T11:33:02.234Z,9.37
2019-02-02T11:35:31.236Z,9.73
2019-02-02T11:37:59.642Z,9.53
2019-02-02T11:40:30.647Z,9.70
2019-02-02T11:42:59.620Z,9.13
2019-02-02T11:45:31.215Z,8.37
2019-02-02T11:47:59.542Z,8.70
2019-02-02T11:50:28.009Z,9.93
2019-02-02T11:52:56.503Z,9.77
2019-02-02T11:55:27.535Z,9.63
2019-02-02T11:57:56.112Z,9.23
2019-02-02T12:00:33.478Z,9.77
2019-02-02T12:03:08.447Z,9.90
2019-02-02T12:05:37.023Z,9.90
2019-02-02T12:08:12.718Z,9.83
2019-02-02T12:10:41.707Z,9.93
2019-02-02T12:13:11.587Z,9.70
2019-02-02T12:15:42.791Z,10.60
2019-02-02T12:18:11.983Z,10.57
2019-02-02T12:20:42.127Z,11.70
2019-02-02T12:23:27.242Z,11.40
2019-02-02T12:25:55.411Z,11.40
2019-02-02T12:28:27.483Z,11.20
2019-02-02T12:31:21.181Z,11.90
2019-02-02T12:33:29.170Z,13.57
2019-02-02T12:35:57.733Z,14.00
2019-02-02T12:38:26.484Z,15.57
2019-02-02T12:40:54.869Z,16.43
2019-02-02T12:43:23.800Z,16.37
2019-02-02T12:45:52.210Z,16.37
2019-02-02T12:48:23.649Z,17.57
2019-02-02T12:50:53.016Z,18.03
2019-02-02T12:53:21.443Z,17.25
2019-02-02T12:55:50.807Z,16.37
2019-02-02T12:58:21.183Z,19.07
2019-02-02T13:00:49.365Z,19.77
2019-02-02T13:03:17.716Z,22.30
2019-02-02T13:05:51.551Z,22.67
2019-02-02T13:08:25.841Z,22.40
2019-02-02T13:10:56.427Z,25.50
2019-02-02T13:13:24.885Z,28.38
2019-02-02T13:15:53.449Z,23.33
2019-02-02T13:18:22.171Z,23.47
2019-02-02T13:20:53.382Z,23.53
2019-02-02T13:23:22.311Z,21.82
2019-02-02T13:25:50.635Z,22.13
2019-02-02T13:28:19.027Z,21.30
2019-02-02T13:30:48.399Z,21.68
2019-02-02T13:33:17.025Z,21.48
2019-02-02T13:35:48.743Z,21.85
2019-02-02T13:38:28.644Z,22.87
2019-02-02T13:40:59.191Z,21.77
2019-02-02T13:43:27.643Z,20.40
2019-02-02T13:45:56.298Z,21.85
2019-02-02T13:48:27.034Z,20.45
2019-02-02T13:50:55.794Z,21.57
2019-02-02T13:53:24.248Z,19.77
2019-02-02T13:55:52.791Z,23.20
2019-02-02T13:58:21.364Z,21.20
2019-02-02T14:00:49.832Z,21.82
2019-02-02T14:03:18.313Z,19.98
2019-02-02T14:05:47.007Z,14.43
2019-02-02T14:08:19.716Z,13.45
2019-02-02T14:10:48.319Z,14.20
2019-02-02T14:13:16.985Z,13.70
2019-02-02T14:15:45.456Z,13.90
2019-02-02T14:18:13.875Z,15.40
2019-02-02T14:20:42.668Z,14.40
2019-02-02T14:23:11.116Z,14.98
2019-02-02T14:25:42.425Z,15.35
2019-02-02T14:28:11.177Z,16.05
2019-02-02T14:30:47.072Z,13.50
2019-02-02T14:33:16.766Z,13.48
2019-02-02T14:35:47.422Z,14.00
2019-02-02T14:38:32.400Z,13.08
2019-02-02T14:41:00.843Z,13.30
2019-02-02T14:43:30.061Z,12.43
2019-02-02T14:45:59.397Z,12.03
2019-02-02T14:48:27.931Z,11.63
2019-02-02T14:51:00.788Z,11.93
2019-02-02T14:53:31.811Z,12.25
2019-02-02T14:56:03.467Z,11.03
2019-02-02T14:58:31.863Z,11.10
2019-02-02T15:01:07.283Z,12.10
2019-02-02T15:03:35.926Z,16.93
2019-02-02T15:06:04.520Z,13.40
2019-02-02T15:08:32.978Z,15.48
2019-02-02T15:11:04.237Z,12.27
2019-02-02T15:13:32.630Z,11.93
2019-02-02T15:16:02.924Z,11.60
2019-02-02T15:18:31.364Z,12.05
2019-02-02T15:21:25.251Z,13.43
2019-02-02T15:23:33.239Z,13.05
2019-02-02T15:29:15.679Z,13.48
2019-02-02T15:34:57.347Z,12.18
2019-02-02T15:40:58.462Z,12.95
2019-02-02T15:43:16.373Z,12.82
2019-02-02T15:45:44.870Z,13.72
2019-02-02T15:48:13.875Z,13.45
2019-02-02T15:51:15.937Z,14.58
2019-02-02T15:53:44.326Z,14.07
2019-02-02T15:56:55.443Z,14.23
2019-02-02T15:59:24.076Z,13.78
2019-02-02T16:01:52.613Z,14.98
2019-02-02T16:04:43.399Z,15.48
2019-02-02T16:07:14.639Z,16.20
2019-02-02T16:09:45.600Z,14.05
2019-02-02T16:12:15.897Z,15.40
2019-02-02T16:14:46.002Z,15.18
2019-02-02T16:18:01.305Z,15.13
2019-02-02T16:20:33.240Z,15.30
2019-02-02T16:26:24.616Z,16.77
2019-02-02T16:29:18.146Z,16.12
2019-02-02T16:31:56.457Z,13.62
2019-02-02T16:35:19.146Z,15.05
2019-02-02T16:37:52.675Z,15.00
2019-02-02T16:40:25.636Z,14.68
2019-02-02T16:43:01.215Z,16.30
2019-02-02T16:45:31.804Z,16.02
2019-02-02T16:48:40.263Z,14.47
2019-02-02T16:51:08.730Z,15.50
2019-02-02T16:56:53.188Z,14.55
2019-02-02T16:59:25.438Z,17.02
2019-02-02T17:02:38.894Z,15.93
2019-02-02T17:05:08.757Z,16.32
2019-02-02T17:10:50.469Z,17.85
2019-02-02T17:13:24.620Z,18.77
2019-02-02T17:15:53.184Z,18.80
2019-02-02T17:18:21.647Z,15.83
2019-02-02T17:21:05.479Z,17.80
2019-02-02T17:23:35.481Z,18.90
2019-02-02T17:26:04.556Z,17.67
2019-02-02T17:28:33.045Z,15.55
2019-02-02T17:31:23.978Z,19.07
2019-02-02T17:34:01.321Z,20.27
2019-02-02T17:39:43.323Z,17.75
2019-02-02T17:43:20.339Z,17.20
2019-02-02T17:44:48.151Z,19.48
2019-02-02T17:47:16.633Z,17.17
2019-02-02T17:53:00.703Z,16.32
2019-02-02T17:55:29.223Z,15.38
2019-02-02T17:58:41.889Z,16.60
2019-02-02T18:01:11.383Z,15.48
2019-02-02T18:04:39.103Z,15.48
2019-02-02T18:07:01.597Z,15.93
2019-02-02T18:09:30.224Z,15.13
2019-02-02T18:12:00.086Z,14.50
2019-02-02T18:14:28.579Z,15.03
2019-02-02T18:16:58.897Z,14.60
2019-02-02T18:19:28.480Z,14.50
2019-02-02T18:21:56.858Z,13.60
2019-02-02T18:24:28.162Z,14.95
2019-02-02T18:26:59.529Z,13.05
2019-02-02T18:29:28.144Z,14.03
2019-02-02T18:31:56.826Z,14.20
2019-02-02T18:34:27.206Z,15.35
2019-02-02T18:43:22.323Z,14.45
2019-02-02T18:49:03.260Z,15.00
2019-02-02T18:51:36.288Z,14.68
2019-02-02T18:54:09.625Z,16.73
2019-02-02T18:56:40.232Z,15.98
2019-02-02T18:59:08.193Z,16.10
2019-02-02T19:01:36.841Z,13.93
2019-02-02T19:04:07.159Z,16.27
2019-02-02T19:07:23.732Z,14.98
2019-02-02T19:09:53.835Z,14.43
2019-02-02T19:12:52.189Z,14.58
2019-02-02T19:15:23.638Z,15.43
2019-02-02T19:17:52.200Z,16.17
2019-02-02T19:21:17.038Z,18.17
2019-02-02T19:23:49.145Z,17.23
2019-02-02T19:26:48.697Z,20.27
2019-02-02T19:29:19.655Z,20.90
2019-02-02T19:34:48.208Z,19.87
2019-02-02T19:37:21.171Z,22.52
2019-02-02T19:40:12.331Z,21.02
2019-02-02T19:42:46.810Z,22.00
2019-02-02T19:48:38.425Z,22.58
2019-02-02T19:51:10.870Z,21.80
2019-02-02T19:53:40.239Z,21.52
2019-02-02T19:56:17.616Z,20.75
2019-02-02T20:01:51.860Z,21.75
2019-02-02T20:04:24.773Z,21.10
2019-02-02T20:07:29.949Z,17.12
2019-02-02T20:09:58.428Z,20.17
2019-02-02T20:12:27.139Z,18.60
2019-02-02T20:14:56.804Z,17.85
2019-02-02T20:17:33.940Z,18.77
2019-02-02T20:20:12.282Z,16.32
2019-02-02T20:22:45.219Z,19.48
2019-02-02T20:25:47.046Z,22.40
2019-02-02T20:28:15.633Z,21.37
2019-02-02T20:30:45.314Z,20.90
2019-02-02T20:33:49.840Z,19.15
2019-02-02T20:36:22.782Z,20.45
2019-02-02T20:38:51.297Z,18.82
2019-02-02T20:41:26.835Z,16.75
2019-02-02T20:43:58.869Z,19.67
2019-02-02T20:49:36.883Z,16.75
2019-02-02T20:52:05.526Z,20.45
2019-02-02T20:57:47.480Z,20.40
2019-02-02T21:00:17.656Z,17.90
2019-02-02T21:02:54.879Z,18.82
2019-02-02T21:05:23.451Z,18.30
2019-02-02T21:08:27.778Z,19.00
2019-02-02T21:10:57.744Z,17.60
2019-02-02T21:13:31.803Z,17.92
2019-02-02T21:16:24.849Z,17.60
2019-02-02T21:18:55.537Z,17.07
2019-02-02T21:21:50.828Z,16.07
2019-02-02T21:24:23.441Z,16.35
2019-02-02T21:26:56.764Z,16.48
2019-02-02T21:30:13.918Z,16.85
2019-02-02T21:32:47.320Z,19.95
2019-02-02T21:36:08.099Z,20.55
2019-02-02T21:38:37.679Z,21.68
2019-02-02T21:43:56.931Z,22.20
2019-02-02T21:46:25.302Z,23.32
2019-02-02T21:48:55.684Z,25.48
2019-02-02T21:51:24.043Z,24.85
2019-02-02T21:53:55.412Z,27.58
2019-02-02T21:57:02.766Z,27.93
2019-02-02T21:59:32.793Z,33.13
2019-02-02T22:02:04.392Z,34.15
2019-02-02T22:04:44.060Z,36.25
2019-02-02T22:07:09.983Z,34.33
2019-02-02T22:09:38.432Z,36.10
2019-02-02T22:12:06.877Z,36.03
2019-02-02T22:14:40.606Z,34.13
2019-02-02T22:20:23.862Z,35.33
2019-02-02T22:22:55.467Z,42.55
2019-02-02T22:26:07.470Z,36.33
2019-02-02T22:28:35.870Z,35.68
2019-02-02T22:31:05.313Z,35.65
2019-02-02T22:33:36.768Z,36.50
2019-02-02T22:36:05.161Z,36.03
2019-02-02T22:38:36.622Z,34.05
2019-02-02T22:41:14.177Z,37.00
2019-02-02T22:43:42.518Z,38.83
2019-02-02T22:46:10.855Z,35.17
2019-02-02T22:48:39.881Z,35.35
2019-02-02T22:51:11.292Z,36.65
2019-02-02T22:54:30.889Z,37.73
2019-02-02T22:57:01.989Z,36.17
2019-02-02T22:59:32.346Z,29.92
2019-02-02T23:02:10.716Z,33.83
2019-02-02T23:04:44.161Z,34.27
2019-02-02T23:08:04.846Z,32.17
2019-02-02T23:10:37.607Z,35.73
2019-02-02T23:16:04.521Z,36.13
2019-02-02T23:18:36.645Z,31.55
2019-02-02T23:21:42.486Z,34.63
2019-02-02T23:24:19.365Z,35.48
2019-02-02T23:29:30.936Z,30.72
2019-02-02T23:32:05.588Z,34.67
2019-02-02T23:35:25.951Z,33.08
2019-02-02T23:37:59.966Z,31.55
2019-02-02T23:40:28.712Z,34.55
2019-02-02T23:43:03.251Z,36.30
2019-02-02T23:45:31.954Z,30.62
2019-02-02T23:50:59.413Z,32.83
2019-02-02T23:53:30.879Z,32.55
2019-02-02T23:55:59.598Z,34.18
2019-02-02T23:58:48.878Z,31.95
